createdAt,value
2019-04-22T00:01:24.450Z,13.10
2019-04-22T00:04:38.031Z,13.10
2019-04-22T00:07:56.818Z,13.10
2019-04-22T00:11:03.196Z,13.10
2019-04-22T00:14:00.873Z,13.00
2019-04-22T00:17:18.484Z,13.00
2019-04-22T00:20:15.919Z,13.10
2019-04-22T00:23:18.721Z,13.00
2019-04-22T00:26:36.090Z,13.00
2019-04-22T00:32:46.438Z,12.90
2019-04-22T00:35:49.796Z,12.90
2019-04-22T00:38:59.172Z,12.80
2019-04-22T00:42:04.064Z,12.80
2019-04-22T00:45:08.271Z,12.70
2019-04-22T00:48:16.649Z,12.70
2019-04-22T00:51:25.280Z,12.70
2019-04-22T00:54:25.274Z,12.70
2019-04-22T00:57:27.853Z,12.60
2019-04-22T01:00:40.549Z,12.60
2019-04-22T01:06:44.522Z,12.50
2019-04-22T01:09:51.763Z,12.50
2019-04-22T01:12:58.390Z,12.50
2019-04-22T01:16:04.510Z,12.40
2019-04-22T01:19:07.893Z,12.40
2019-04-22T01:22:14.911Z,12.40
2019-04-22T01:25:14.643Z,12.40
2019-04-22T01:28:15.313Z,12.40
2019-04-22T01:31:12.374Z,12.40
2019-04-22T01:34:32.181Z,12.30
2019-04-22T01:37:34.566Z,12.40
2019-04-22T01:40:45.728Z,12.40
2019-04-22T01:43:59.032Z,12.40
2019-04-22T01:47:00.050Z,12.50
2019-04-22T01:49:59.882Z,12.50
2019-04-22T01:53:27.453Z,12.50
2019-04-22T01:56:16.078Z,12.40
2019-04-22T01:59:12.892Z,12.40
2019-04-22T02:02:23.265Z,12.40
2019-04-22T02:05:29.020Z,12.40
2019-04-22T02:08:45.480Z,12.40
2019-04-22T02:11:45.522Z,12.40
2019-04-22T02:14:45.048Z,12.40
2019-04-22T02:17:54.794Z,12.30
2019-04-22T02:20:54.972Z,12.30
2019-04-22T02:24:05.193Z,12.30
2019-04-22T02:27:10.713Z,12.20
2019-04-22T02:30:06.523Z,12.20
2019-04-22T02:33:41.298Z,12.20
2019-04-22T02:36:30.053Z,12.20
2019-04-22T02:39:24.443Z,12.10
2019-04-22T02:42:35.248Z,12.00
2019-04-22T02:45:52.568Z,12.00
2019-04-22T02:51:49.986Z,11.90
2019-04-22T02:55:01.355Z,11.80
2019-04-22T02:58:29.453Z,11.80
2019-04-22T03:01:20.077Z,11.80
2019-04-22T03:07:16.480Z,11.70
2019-04-22T03:10:33.470Z,11.60
2019-04-22T03:13:40.480Z,11.60
2019-04-22T03:22:47.582Z,11.50
2019-04-22T03:32:46.134Z,11.50
2019-04-22T03:41:27.289Z,11.30
2019-04-22T03:47:33.614Z,11.20
2019-04-22T03:50:36.500Z,11.20
2019-04-22T03:59:52.045Z,11.10
2019-04-22T04:02:54.217Z,11.10
2019-04-22T04:05:59.531Z,11.00
2019-04-22T04:09:14.315Z,11.00
2019-04-22T04:12:13.902Z,11.00
2019-04-22T04:18:39.187Z,11.00
2019-04-22T04:33:50.976Z,11.00
2019-04-22T04:40:10.173Z,11.00
2019-04-22T04:49:19.431Z,11.10
2019-04-22T04:52:30.934Z,11.20
2019-04-22T04:58:35.101Z,11.30
2019-04-22T05:01:35.419Z,11.30
2019-04-22T05:04:51.170Z,11.40
2019-04-22T05:07:56.053Z,11.40
2019-04-22T05:14:03.299Z,11.50
2019-04-22T05:16:54.610Z,11.60
2019-04-22T05:20:06.652Z,11.70
2019-04-22T05:23:01.513Z,11.70
2019-04-22T05:26:16.521Z,11.80
2019-04-22T05:32:22.790Z,12.60
2019-04-22T05:35:28.146Z,13.00
2019-04-22T05:38:37.955Z,13.20
2019-04-22T05:41:35.230Z,13.80
2019-04-22T05:44:48.025Z,15.90
2019-04-22T05:47:46.456Z,18.40
2019-04-22T05:50:50.368Z,20.30
2019-04-22T05:53:59.015Z,21.70
2019-04-22T05:56:51.360Z,22.60
2019-04-22T06:00:06.400Z,23.40
2019-04-22T06:03:20.884Z,23.90
2019-04-22T06:06:17.893Z,23.70
2019-04-22T06:09:24.873Z,23.80
2019-04-22T06:12:23.516Z,24.20
2019-04-22T06:15:42.979Z,24.30
2019-04-22T06:18:44.532Z,24.30
2019-04-22T06:21:46.345Z,24.10
2019-04-22T06:24:49.125Z,23.90
2019-04-22T06:27:54.169Z,24.20
2019-04-22T06:31:02.491Z,24.30
2019-04-22T06:34:11.905Z,24.30
2019-04-22T06:37:13.421Z,24.30
2019-04-22T06:40:24.789Z,24.30
2019-04-22T06:43:25.197Z,24.40
2019-04-22T06:46:30.071Z,24.60
2019-04-22T06:52:38.126Z,24.10
2019-04-22T06:55:45.623Z,23.10
2019-04-22T06:58:50.040Z,22.70
2019-04-22T07:01:55.807Z,22.80
2019-04-22T07:05:00.966Z,22.40
2019-04-22T07:08:18.258Z,22.10
2019-04-22T07:11:06.285Z,22.00
2019-04-22T07:14:09.064Z,22.10
2019-04-22T07:17:20.614Z,22.20
2019-04-22T07:20:30.525Z,21.70
2019-04-22T07:23:34.929Z,21.70
2019-04-22T07:26:37.579Z,21.60
2019-04-22T07:29:46.682Z,22.20
2019-04-22T07:33:04.616Z,22.40
2019-04-22T07:36:06.442Z,22.60
2019-04-22T07:39:01.927Z,22.90
2019-04-22T07:42:10.709Z,22.50
2019-04-22T07:45:10.551Z,22.00
2019-04-22T07:48:26.206Z,22.40
2019-04-22T07:51:23.200Z,22.80
2019-04-22T07:54:24.079Z,22.90
2019-04-22T08:00:34.321Z,22.40
2019-04-22T08:03:53.387Z,22.40
2019-04-22T08:10:00.124Z,22.60
2019-04-22T08:19:10.819Z,22.90
2019-04-22T08:22:07.481Z,22.90
2019-04-22T08:25:10.539Z,23.00
2019-04-22T08:28:26.256Z,23.10
2019-04-22T08:31:31.732Z,22.80
2019-04-22T08:34:29.506Z,22.40
2019-04-22T08:37:47.590Z,22.20
2019-04-22T08:40:47.147Z,22.00
2019-04-22T08:50:12.039Z,22.30
2019-04-22T08:53:10.918Z,22.10
2019-04-22T08:56:23.468Z,22.10
2019-04-22T08:59:28.318Z,22.50
2019-04-22T09:02:25.858Z,22.40
2019-04-22T09:05:42.425Z,22.30
2019-04-22T09:08:35.782Z,22.00
2019-04-22T09:11:41.988Z,21.60
2019-04-22T09:18:11.128Z,20.90
2019-04-22T09:20:57.267Z,20.30
2019-04-22T09:24:08.571Z,20.30
2019-04-22T09:27:11.235Z,20.30
2019-04-22T09:30:17.037Z,20.30
2019-04-22T09:39:30.275Z,19.90
2019-04-22T09:42:32.275Z,19.90
2019-04-22T09:45:36.062Z,19.80
2019-04-22T09:48:44.833Z,19.40
2019-04-22T09:51:44.957Z,19.10
2019-04-22T09:54:59.760Z,19.10
2019-04-22T09:57:57.985Z,19.10
2019-04-22T10:01:18.737Z,18.90
2019-04-22T10:04:10.015Z,19.00
2019-04-22T10:07:24.008Z,19.10
2019-04-22T10:10:20.491Z,19.20
2019-04-22T10:13:34.605Z,19.30
2019-04-22T10:19:40.998Z,19.40
2019-04-22T10:22:47.563Z,19.30
2019-04-22T10:25:52.281Z,19.30
2019-04-22T10:29:00.879Z,19.20
2019-04-22T10:32:01.102Z,19.50
2019-04-22T10:34:58.853Z,19.50
2019-04-22T10:37:56.468Z,19.40
2019-04-22T10:41:00.834Z,19.60
2019-04-22T10:44:05.472Z,19.60
2019-04-22T10:47:09.705Z,19.60
2019-04-22T10:50:14.516Z,19.60
2019-04-22T10:53:19.653Z,19.60
2019-04-22T10:56:23.369Z,19.70
2019-04-22T10:59:26.964Z,19.50
2019-04-22T11:02:31.634Z,19.60
2019-04-22T11:05:37.925Z,19.60
2019-04-22T11:08:50.487Z,19.60
2019-04-22T11:11:57.817Z,19.70
2019-04-22T11:14:51.941Z,19.60
2019-04-22T11:17:55.638Z,19.40
2019-04-22T11:20:59.837Z,19.40
2019-04-22T11:24:05.072Z,19.40
2019-04-22T11:27:08.568Z,19.30
2019-04-22T11:30:13.814Z,19.10
2019-04-22T11:33:18.385Z,19.10
2019-04-22T11:36:22.030Z,19.20
2019-04-22T11:39:26.029Z,19.10
2019-04-22T11:42:32.226Z,19.10
2019-04-22T11:45:37.088Z,19.10
2019-04-22T11:48:42.215Z,19.00
2019-04-22T11:51:45.890Z,19.10
2019-04-22T11:54:50.589Z,19.10
2019-04-22T11:57:54.325Z,19.10
2019-04-22T12:00:59.212Z,19.20
2019-04-22T12:04:03.977Z,19.10
2019-04-22T12:07:08.792Z,18.90
2019-04-22T12:10:24.307Z,18.80
2019-04-22T12:13:19.827Z,18.80
2019-04-22T12:16:23.522Z,18.90
2019-04-22T12:19:27.154Z,18.90
2019-04-22T12:22:31.254Z,19.00
2019-04-22T12:25:46.516Z,19.00
2019-04-22T12:28:41.184Z,19.00
2019-04-22T12:31:45.246Z,19.00
2019-04-22T12:34:49.306Z,19.00
2019-04-22T12:37:58.731Z,19.10
2019-04-22T12:41:03.925Z,19.10
2019-04-22T12:44:05.185Z,19.10
2019-04-22T12:47:09.866Z,19.10
2019-04-22T12:50:24.067Z,19.20
2019-04-22T12:53:25.387Z,19.20
2019-04-22T12:56:27.844Z,19.10
2019-04-22T12:59:31.858Z,19.00
2019-04-22T13:02:36.750Z,18.90
2019-04-22T13:05:41.011Z,18.90
2019-04-22T13:08:45.720Z,18.90
2019-04-22T13:11:50.906Z,18.90
2019-04-22T13:14:54.859Z,18.90
2019-04-22T13:18:05.752Z,18.90
2019-04-22T13:21:04.582Z,18.80
2019-04-22T13:24:09.103Z,18.80
2019-04-22T13:27:12.991Z,18.80
2019-04-22T13:30:18.587Z,18.80
2019-04-22T13:33:23.189Z,18.80
2019-04-22T13:36:28.294Z,18.80
2019-04-22T13:39:32.097Z,18.60
2019-04-22T13:42:44.870Z,18.60
2019-04-22T13:45:49.777Z,18.80
2019-04-22T13:49:28.251Z,18.90
2019-04-22T13:55:34.297Z,18.80
2019-04-22T13:58:21.954Z,18.80
2019-04-22T14:01:18.750Z,18.70
2019-04-22T14:04:24.756Z,18.70
2019-04-22T14:07:28.623Z,18.70
2019-04-22T14:10:32.452Z,18.60
2019-04-22T14:13:35.904Z,18.50
2019-04-22T14:16:40.648Z,18.50
2019-04-22T14:19:44.735Z,18.40
2019-04-22T14:22:48.633Z,18.50
2019-04-22T14:25:52.838Z,18.50
2019-04-22T14:28:57.546Z,18.50
2019-04-22T14:32:10.624Z,18.40
2019-04-22T14:35:11.254Z,18.40
2019-04-22T14:38:16.162Z,18.40
2019-04-22T14:41:35.932Z,18.30
2019-04-22T14:47:53.902Z,18.20
2019-04-22T14:50:56.007Z,18.30
2019-04-22T14:53:58.195Z,18.30
2019-04-22T14:56:46.669Z,18.20
2019-04-22T14:59:50.240Z,18.10
2019-04-22T15:02:53.741Z,18.30
